Time;durP1;ratioP1;P1;durP2;ratioP2;P2;SDS_P1;SDS_P2;PMS_P1;PMS_P2;Temp;Humidity;BMP_temperature;BMP_pressure;BME280_temperature;BME280_humidity;BME280_pressure;Samples;Min_cycle;Max_cycle;Signal;HPM_P1;HPM_P2
2021/06/07 00:00:30;;;;;;;5.40;4.90;;;21.20;99.90;;;;;;5034052;28;20432;-77
2021/06/07 00:02:56;;;;;;;4.05;3.75;;;21.20;99.90;;;;;;5034468;28;20056;-78
2021/06/07 00:05:23;;;;;;;5.03;4.63;;;21.10;99.90;;;;;;5033548;28;20029;-78
2021/06/07 00:07:49;;;;;;;4.90;4.25;;;21.20;99.90;;;;;;5033621;28;20448;-77
2021/06/07 00:10:17;;;;;;;5.20;4.68;;;21.20;99.90;;;;;;5032799;28;20103;-78
2021/06/07 00:12:43;;;;;;;5.38;4.97;;;21.20;99.90;;;;;;5033543;28;20423;-77
2021/06/07 00:15:12;;;;;;;4.70;4.07;;;21.20;99.90;;;;;;5032310;28;20010;-77
2021/06/07 00:17:38;;;;;;;5.57;5.03;;;21.20;99.90;;;;;;5020100;28;20026;-78
2021/06/07 00:20:23;;;;;;;4.65;4.35;;;21.30;99.90;;;;;;5033372;28;20383;-78
2021/06/07 00:22:49;;;;;;;5.60;5.10;;;21.40;99.90;;;;;;5033199;28;20498;-78
2021/06/07 00:25:15;;;;;;;5.47;4.88;;;21.40;99.90;;;;;;5032878;28;20034;-78
2021/06/07 00:27:40;;;;;;;3.80;3.45;;;21.40;99.90;;;;;;5032224;28;20021;-78
2021/06/07 00:30:07;;;;;;;4.78;4.38;;;21.30;99.90;;;;;;5031958;28;20033;-78
2021/06/07 00:32:32;;;;;;;4.97;4.57;;;21.40;99.90;;;;;;5033167;28;20049;-78
2021/06/07 00:34:58;;;;;;;4.82;4.35;;;21.30;99.90;;;;;;5024922;28;20029;-78
2021/06/07 00:37:24;;;;;;;4.45;3.88;;;21.30;99.90;;;;;;5040613;28;20090;-77
2021/06/07 00:39:50;;;;;;;5.32;4.40;;;21.30;99.90;;;;;;5033153;28;20060;-79
2021/06/07 00:42:15;;;;;;;4.88;4.45;;;21.30;99.90;;;;;;5017566;28;20101;-79
2021/06/07 00:44:41;;;;;;;5.63;4.75;;;21.30;99.90;;;;;;5032849;28;20034;-76
2021/06/07 00:47:08;;;;;;;4.60;4.20;;;21.20;99.90;;;;;;5032132;28;20021;-78
2021/06/07 00:49:34;;;;;;;3.58;3.38;;;21.20;99.90;;;;;;5031016;28;20025;-77
2021/06/07 00:52:00;;;;;;;4.72;4.32;;;21.20;99.90;;;;;;5031649;28;20032;-77
2021/06/07 00:54:26;;;;;;;4.90;4.45;;;21.20;99.90;;;;;;5032460;28;20026;-78
2021/06/07 00:56:51;;;;;;;5.55;5.05;;;21.20;99.90;;;;;;5006426;28;20022;-78
2021/06/07 00:59:17;;;;;;;5.63;3.65;;;21.20;99.90;;;;;;5031443;28;20029;-78
2021/06/07 01:01:43;;;;;;;5.40;4.93;;;21.10;99.90;;;;;;5031204;28;20025;-78
2021/06/07 01:04:10;;;;;;;5.20;4.00;;;21.20;99.90;;;;;;5029260;28;20104;-78
2021/06/07 01:06:37;;;;;;;4.13;3.83;;;21.20;99.90;;;;;;5027438;28;20091;-78
2021/06/07 01:09:04;;;;;;;5.20;4.57;;;21.10;99.90;;;;;;5031120;28;20060;-79
2021/06/07 01:11:32;;;;;;;4.75;4.45;;;21.10;99.90;;;;;;5031812;28;20684;-78
2021/06/07 01:13:58;;;;;;;4.90;4.47;;;21.10;99.90;;;;;;5034544;28;20038;-78
2021/06/07 01:16:24;;;;;;;4.03;3.83;;;21.00;99.90;;;;;;5030515;28;20029;-78
2021/06/07 01:18:51;;;;;;;3.80;3.50;;;21.00;99.90;;;;;;5032678;28;20160;-78
2021/06/07 01:21:27;;;;;;;5.53;4.32;;;21.00;99.90;;;;;;5012434;28;20018;-78
2021/06/07 01:23:55;;;;;;;5.20;3.88;;;21.00;99.90;;;;;;5032227;28;20025;-78
2021/06/07 01:26:22;;;;;;;5.82;3.95;;;20.90;99.90;;;;;;5030310;28;20499;-78
2021/06/07 01:28:50;;;;;;;4.47;3.90;;;20.90;99.90;;;;;;5031103;28;20022;-77
2021/06/07 01:31:17;;;;;;;4.68;4.38;;;20.90;99.90;;;;;;5031153;28;20041;-78
2021/06/07 01:33:46;;;;;;;4.90;4.35;;;20.90;99.90;;;;;;5031235;28;20466;-78
2021/06/07 01:36:12;;;;;;;4.30;4.00;;;20.90;99.90;;;;;;5026939;28;20142;-78
2021/06/07 01:38:39;;;;;;;4.28;3.97;;;21.00;99.90;;;;;;5029117;28;20030;-78
2021/06/07 01:41:08;;;;;;;3.63;3.40;;;21.00;99.90;;;;;;5027671;28;20076;-78
2021/06/07 01:43:37;;;;;;;4.30;4.00;;;20.90;99.90;;;;;;5031424;28;20040;-78
2021/06/07 01:46:03;;;;;;;6.07;4.18;;;21.00;99.90;;;;;;5026388;28;20053;-77
2021/06/07 01:48:29;;;;;;;3.83;3.42;;;21.00;99.90;;;;;;5028223;28;20026;-77
2021/06/07 01:50:58;;;;;;;3.78;3.58;;;20.90;99.90;;;;;;5031326;28;20026;-79
2021/06/07 01:53:27;;;;;;;9.30;3.97;;;20.90;99.90;;;;;;5030912;28;20028;-78
2021/06/07 01:55:57;;;;;;;4.38;3.97;;;20.80;99.90;;;;;;5030966;28;20506;-78
2021/06/07 01:58:24;;;;;;;4.57;4.15;;;20.90;99.90;;;;;;5030852;28;20086;-77
2021/06/07 02:00:52;;;;;;;3.90;3.60;;;20.90;99.90;;;;;;5028136;28;20017;-77
2021/06/07 02:03:20;;;;;;;3.80;3.47;;;20.90;99.90;;;;;;5030894;28;20036;-78
2021/06/07 02:05:48;;;;;;;4.55;3.78;;;20.90;99.90;;;;;;5031495;28;20037;-78
2021/06/07 02:08:16;;;;;;;8.48;3.85;;;20.90;99.90;;;;;;5026011;28;20022;-78
2021/06/07 02:10:45;;;;;;;4.85;4.45;;;21.00;99.90;;;;;;5030079;28;20014;-78
2021/06/07 02:13:12;;;;;;;6.40;4.85;;;20.90;99.90;;;;;;5025152;28;20028;-78
2021/06/07 02:15:38;;;;;;;4.45;4.15;;;21.00;99.90;;;;;;5024797;28;20026;-78
2021/06/07 02:18:09;;;;;;;4.63;3.92;;;20.90;99.90;;;;;;5031044;28;20029;-78
2021/06/07 02:20:36;;;;;;;4.35;4.00;;;20.90;99.90;;;;;;5034008;28;20014;-78
2021/06/07 02:23:02;;;;;;;4.30;3.90;;;20.90;99.90;;;;;;5021546;28;20099;-79
2021/06/07 02:25:28;;;;;;;7.03;4.03;;;21.00;99.90;;;;;;5021136;28;20091;-78
2021/06/07 02:27:54;;;;;;;8.52;3.80;;;21.00;99.90;;;;;;5038578;28;20534;-79
2021/06/07 02:30:23;;;;;;;4.60;4.05;;;21.00;99.90;;;;;;5043417;28;20056;-78
2021/06/07 02:32:51;;;;;;;5.03;4.32;;;21.10;99.90;;;;;;5034177;28;20018;-79
2021/06/07 02:35:18;;;;;;;5.30;4.80;;;21.10;99.90;;;;;;5028456;28;20112;-78
2021/06/07 02:37:46;;;;;;;4.68;4.38;;;21.00;99.90;;;;;;5034195;28;20033;-79
2021/06/07 02:40:14;;;;;;;5.25;4.00;;;20.90;99.90;;;;;;5038442;28;20030;-78
2021/06/07 02:42:41;;;;;;;4.38;4.07;;;20.80;99.90;;;;;;5034492;28;20029;-79
2021/06/07 02:45:11;;;;;;;7.18;4.13;;;20.80;99.90;;;;;;5032654;28;20017;-78
2021/06/07 02:47:38;;;;;;;4.78;4.40;;;20.80;99.90;;;;;;5030159;28;20045;-77
2021/06/07 02:50:07;;;;;;;4.40;4.10;;;20.70;99.90;;;;;;5026274;28;20030;-77
2021/06/07 02:52:33;;;;;;;5.55;5.05;;;20.70;99.90;;;;;;5034242;28;20471;-79
2021/06/07 02:54:58;;;;;;;4.85;4.45;;;20.70;99.90;;;;;;5034999;28;20029;-78
2021/06/07 02:57:24;;;;;;;4.55;4.20;;;20.70;99.90;;;;;;5032135;28;20395;-78
2021/06/07 02:59:50;;;;;;;5.15;4.65;;;20.80;99.90;;;;;;5034732;28;20402;-78
2021/06/07 03:02:15;;;;;;;4.05;3.78;;;20.70;99.90;;;;;;5035112;28;20029;-78
2021/06/07 03:04:41;;;;;;;5.57;5.07;;;20.70;99.90;;;;;;5033706;28;20064;-78
2021/06/07 03:07:07;;;;;;;7.32;4.93;;;20.70;99.90;;;;;;5040616;28;20025;-76
2021/06/07 03:09:33;;;;;;;5.25;4.75;;;20.70;99.90;;;;;;5013662;28;20041;-77
2021/06/07 03:12:02;;;;;;;7.85;4.93;;;20.70;99.90;;;;;;5029017;28;20399;-77
2021/06/07 03:14:28;;;;;;;4.90;4.40;;;20.70;99.90;;;;;;5034148;28;20029;-79
2021/06/07 03:16:54;;;;;;;4.15;3.85;;;20.70;99.90;;;;;;5031396;28;20025;-77
2021/06/07 03:19:20;;;;;;;4.47;4.10;;;20.60;99.90;;;;;;5034040;28;20266;-77
2021/06/07 03:21:45;;;;;;;5.03;4.60;;;20.60;99.90;;;;;;5033106;28;20034;-77
2021/06/07 03:24:11;;;;;;;7.32;4.88;;;20.60;99.90;;;;;;5031971;28;20087;-78
2021/06/07 03:26:37;;;;;;;3.97;3.67;;;20.60;99.90;;;;;;5016059;28;20033;-78
2021/06/07 03:29:04;;;;;;;5.72;4.70;;;20.60;99.90;;;;;;5033575;28;20484;-77
2021/06/07 03:31:30;;;;;;;4.82;4.53;;;20.50;99.90;;;;;;5016973;28;20025;-79
2021/06/07 03:33:55;;;;;;;6.43;3.88;;;20.50;99.90;;;;;;5033356;28;20025;-79
2021/06/07 03:36:22;;;;;;;5.72;4.30;;;20.50;99.90;;;;;;5012576;28;20452;-76
2021/06/07 03:38:48;;;;;;;4.13;3.83;;;20.60;99.90;;;;;;5030833;28;20025;-76
2021/06/07 03:41:14;;;;;;;4.35;4.05;;;20.50;99.90;;;;;;5020312;28;20120;-77
2021/06/07 03:43:39;;;;;;;4.35;4.05;;;20.60;99.90;;;;;;5033133;28;20023;-77
2021/06/07 03:46:05;;;;;;;4.55;4.15;;;20.60;99.90;;;;;;5016562;28;20068;-78
2021/06/07 03:48:31;;;;;;;8.35;3.95;;;20.60;99.90;;;;;;5014961;28;20075;-78
2021/06/07 03:50:59;;;;;;;4.72;4.28;;;20.70;99.90;;;;;;5031913;28;20033;-78
2021/06/07 03:53:25;;;;;;;3.25;3.05;;;20.70;99.90;;;;;;5017282;28;20626;-79
2021/06/07 03:55:51;;;;;;;4.00;3.63;;;20.70;99.90;;;;;;5033338;28;20029;-79
2021/06/07 03:58:16;;;;;;;3.65;3.35;;;20.70;99.90;;;;;;5026128;28;20483;-79
2021/06/07 04:00:42;;;;;;;3.20;3.00;;;20.70;99.90;;;;;;5035942;28;20025;-77
2021/06/07 04:03:12;;;;;;;3.90;3.60;;;20.80;99.90;;;;;;5034025;28;20037;-77
2021/06/07 04:05:39;;;;;;;3.85;3.28;;;20.70;99.90;;;;;;5014315;28;20464;-78
2021/06/07 04:08:09;;;;;;;3.20;2.97;;;20.80;99.90;;;;;;5032752;28;20041;-78
2021/06/07 04:10:35;;;;;;;4.53;4.10;;;20.80;99.90;;;;;;5031365;28;20079;-78
2021/06/07 04:13:02;;;;;;;4.70;4.30;;;20.90;99.90;;;;;;5031905;28;20032;-78
2021/06/07 04:15:28;;;;;;;5.43;4.28;;;20.90;99.90;;;;;;5033606;28;20035;-77
2021/06/07 04:17:56;;;;;;;549.83;287.80;;;20.90;99.90;;;;;;5033606;28;20121;-77
2021/06/07 04:20:25;;;;;;;18.60;17.65;;;20.90;99.90;;;;;;5014898;28;20061;-77
2021/06/07 04:22:51;;;;;;;5.00;3.22;;;20.90;99.90;;;;;;5034045;28;20029;-77
2021/06/07 04:25:19;;;;;;;2.92;2.65;;;21.00;99.90;;;;;;5038050;28;20021;-79
2021/06/07 04:27:45;;;;;;;7.20;4.15;;;21.00;99.90;;;;;;5025226;28;20017;-78
2021/06/07 04:30:14;;;;;;;3.05;2.85;;;21.00;99.90;;;;;;5035795;28;20060;-78
2021/06/07 04:32:40;;;;;;;3.15;2.95;;;21.10;99.90;;;;;;5024742;28;20022;-78
2021/06/07 04:35:09;;;;;;;6.15;3.10;;;21.10;99.90;;;;;;5036924;28;20125;-78
2021/06/07 04:37:49;;;;;;;3.17;2.65;;;21.30;99.90;;;;;;5035835;28;20033;-77
2021/06/07 04:40:36;;;;;;;3.15;2.95;;;21.30;99.90;;;;;;5028635;28;20018;-77
2021/06/07 04:43:06;;;;;;;3.08;2.50;;;21.40;99.90;;;;;;5035217;28;20487;-76
2021/06/07 04:45:33;;;;;;;2.90;2.70;;;21.40;99.90;;;;;;5037833;28;20025;-77
2021/06/07 04:47:59;;;;;;;4.18;2.55;;;21.20;99.90;;;;;;5039276;28;20021;-79
2021/06/07 04:50:28;;;;;;;3.75;3.45;;;20.90;99.90;;;;;;5034148;28;20105;-79
2021/06/07 04:55:31;;;;;;;3.47;3.28;;;21.20;99.90;;;;;;5036198;28;20056;-78
2021/06/07 04:57:57;;;;;;;2.42;2.22;;;21.30;99.90;;;;;;5036197;28;20025;-78
2021/06/07 05:00:25;;;;;;;2.85;2.65;;;21.40;99.90;;;;;;5035993;28;20017;-78
2021/06/07 05:02:52;;;;;;;2.63;2.42;;;21.50;99.90;;;;;;5027835;28;20096;-78
2021/06/07 05:05:18;;;;;;;4.85;3.33;;;21.50;99.90;;;;;;5031204;28;20026;-77
2021/06/07 05:07:44;;;;;;;2.97;2.65;;;21.70;99.90;;;;;;5032518;28;20029;-78
2021/06/07 05:10:11;;;;;;;3.17;2.97;;;21.70;99.90;;;;;;5032007;28;20036;-78
2021/06/07 05:12:38;;;;;;;7.15;2.53;;;21.60;99.90;;;;;;5036335;28;20030;-78
2021/06/07 05:15:07;;;;;;;3.78;2.80;;;21.60;99.90;;;;;;5035716;28;20029;-78
2021/06/07 05:17:33;;;;;;;2.70;2.50;;;21.70;99.90;;;;;;5040007;28;20511;-78
2021/06/07 05:19:59;;;;;;;2.47;2.28;;;21.70;99.90;;;;;;5035749;28;20556;-76
2021/06/07 05:22:25;;;;;;;3.47;3.28;;;21.70;99.90;;;;;;5020674;28;20029;-78
2021/06/07 05:24:51;;;;;;;3.10;2.90;;;21.50;99.90;;;;;;5034338;28;20032;-78
2021/06/07 05:27:17;;;;;;;3.90;3.17;;;21.50;99.90;;;;;;5032533;28;20041;-76
2021/06/07 05:29:44;;;;;;;5.97;3.60;;;21.60;99.90;;;;;;5016132;28;20029;-78
2021/06/07 05:32:10;;;;;;;3.20;3.00;;;21.60;99.90;;;;;;5018811;28;20101;-77
2021/06/07 05:34:36;;;;;;;3.75;3.45;;;21.70;99.90;;;;;;5031358;28;20083;-78
2021/06/07 05:37:02;;;;;;;3.88;3.58;;;21.90;99.90;;;;;;5037533;28;20113;-78
2021/06/07 05:39:28;;;;;;;4.13;3.78;;;22.00;99.90;;;;;;5038129;28;20114;-78
2021/06/07 05:41:55;;;;;;;3.50;3.20;;;22.00;99.90;;;;;;5034393;28;20048;-78
2021/06/07 05:44:21;;;;;;;5.90;4.82;;;21.90;99.90;;;;;;5033976;28;20071;-77
2021/06/07 05:46:47;;;;;;;4.78;3.95;;;21.90;99.90;;;;;;5014387;28;20495;-77
2021/06/07 05:49:14;;;;;;;4.38;4.07;;;21.90;99.90;;;;;;5032316;28;20541;-78
2021/06/07 05:51:40;;;;;;;6.65;4.00;;;22.00;99.90;;;;;;5033710;28;20041;-78
2021/06/07 05:54:06;;;;;;;5.05;4.65;;;21.90;99.90;;;;;;5034948;28;20037;-78
2021/06/07 05:56:32;;;;;;;4.10;3.80;;;21.90;99.90;;;;;;5041247;28;20116;-78
2021/06/07 05:58:58;;;;;;;5.55;3.45;;;21.90;99.90;;;;;;5052435;28;20488;-78
2021/06/07 06:01:25;;;;;;;4.90;4.40;;;21.90;99.90;;;;;;5037201;28;20103;-78
2021/06/07 06:03:52;;;;;;;5.15;4.65;;;22.00;99.90;;;;;;5036882;28;20022;-79
2021/06/07 06:06:18;;;;;;;6.03;4.57;;;22.00;99.90;;;;;;5032181;28;20029;-78
2021/06/07 06:08:46;;;;;;;8.30;4.43;;;22.00;99.90;;;;;;5027876;28;20022;-77
2021/06/07 06:11:12;;;;;;;7.00;4.55;;;22.00;99.90;;;;;;5026412;28;20014;-79
2021/06/07 06:13:38;;;;;;;4.95;4.55;;;22.00;99.90;;;;;;5036837;28;20021;-78
2021/06/07 06:16:05;;;;;;;4.80;4.40;;;22.20;99.90;;;;;;5037979;28;20068;-79
2021/06/07 06:18:31;;;;;;;6.30;5.25;;;22.20;99.90;;;;;;5044862;28;20025;-78
2021/06/07 06:20:57;;;;;;;6.35;4.32;;;22.20;99.90;;;;;;5052315;28;20025;-77
2021/06/07 06:23:22;;;;;;;8.38;4.43;;;22.30;99.90;;;;;;5041678;28;20017;-77
2021/06/07 06:25:49;;;;;;;9.40;7.75;;;22.30;99.90;;;;;;5042468;28;20091;-79
2021/06/07 06:28:15;;;;;;;4.28;3.88;;;22.40;99.90;;;;;;5051436;28;20022;-78
2021/06/07 06:30:41;;;;;;;4.15;3.85;;;22.40;99.90;;;;;;5051502;28;20076;-79
2021/06/07 06:33:07;;;;;;;9.00;4.10;;;22.30;99.90;;;;;;5046288;28;20025;-78
2021/06/07 06:35:33;;;;;;;3.45;3.15;;;22.30;99.90;;;;;;5045343;28;20056;-79
2021/06/07 06:37:59;;;;;;;3.50;3.20;;;22.30;99.90;;;;;;5047445;28;20204;-79
2021/06/07 06:40:29;;;;;;;3.90;3.35;;;22.50;99.90;;;;;;5039781;28;20060;-78
2021/06/07 06:42:57;;;;;;;2.97;2.78;;;22.80;99.90;;;;;;5023446;28;20029;-78
2021/06/07 06:45:24;;;;;;;2.42;2.33;;;22.80;99.90;;;;;;5041221;28;20430;-76
2021/06/07 06:47:56;;;;;;;3.13;2.92;;;22.90;99.90;;;;;;5043916;28;20388;-78
2021/06/07 06:50:27;;;;;;;3.38;3.17;;;22.90;99.90;;;;;;5053007;28;20017;-80
2021/06/07 06:52:54;;;;;;;6.47;3.17;;;23.10;99.90;;;;;;5031895;28;20037;-78
2021/06/07 06:55:20;;;;;;;4.93;3.30;;;23.30;99.90;;;;;;5032824;28;20018;-79
2021/06/07 06:57:46;;;;;;;4.93;4.38;;;23.30;99.90;;;;;;5054059;28;20030;-79
2021/06/07 07:00:13;;;;;;;3.63;3.42;;;23.30;99.90;;;;;;5014988;28;20376;-77
2021/06/07 07:02:40;;;;;;;3.50;3.10;;;23.40;99.90;;;;;;5035497;28;21050;-77
2021/06/07 07:05:07;;;;;;;4.50;2.53;;;23.70;99.90;;;;;;5054048;28;20036;-77
2021/06/07 07:07:33;;;;;;;4.15;3.85;;;23.30;99.90;;;;;;5046574;28;20017;-75
2021/06/07 07:09:59;;;;;;;3.83;3.63;;;23.20;99.90;;;;;;5043119;28;20021;-75
2021/06/07 07:12:26;;;;;;;4.13;3.35;;;23.30;99.90;;;;;;5042869;28;20025;-75
2021/06/07 07:14:56;;;;;;;3.35;3.15;;;23.40;99.90;;;;;;5041025;28;20372;-75
2021/06/07 07:17:22;;;;;;;3.33;3.10;;;23.50;99.90;;;;;;5041598;28;20029;-73
2021/06/07 07:19:49;;;;;;;3.60;3.30;;;23.70;99.90;;;;;;5034362;28;20025;-73
2021/06/07 07:22:17;;;;;;;3.20;2.97;;;24.00;99.90;;;;;;5024709;28;20083;-73
2021/06/07 07:24:44;;;;;;;3.83;3.53;;;23.90;99.90;;;;;;5032566;28;20068;-74
2021/06/07 07:27:12;;;;;;;2.30;2.20;;;23.70;99.90;;;;;;5036939;28;20021;-74
2021/06/07 07:29:42;;;;;;;2.45;2.35;;;23.70;99.90;;;;;;5039701;28;20033;-74
2021/06/07 07:32:09;;;;;;;4.80;2.15;;;23.70;99.90;;;;;;5045463;28;20053;-73
2021/06/07 07:34:37;;;;;;;2.63;2.42;;;23.80;99.90;;;;;;5047639;28;20038;-75
2021/06/07 07:37:04;;;;;;;6.50;2.53;;;23.70;99.90;;;;;;5039901;28;20025;-74
2021/06/07 07:39:31;;;;;;;2.92;2.55;;;23.70;99.90;;;;;;5045532;28;20083;-75
2021/06/07 07:41:57;;;;;;;2.45;2.05;;;23.80;99.90;;;;;;5045376;28;20097;-75
2021/06/07 07:44:24;;;;;;;2.70;2.47;;;23.80;99.90;;;;;;5042754;28;20075;-75
2021/06/07 07:46:52;;;;;;;3.50;3.25;;;23.80;99.90;;;;;;5043869;28;20026;-75
2021/06/07 07:49:21;;;;;;;4.15;3.78;;;23.90;99.90;;;;;;5028074;28;20036;-75
2021/06/07 07:51:48;;;;;;;3.22;3.03;;;24.10;99.90;;;;;;5046009;28;20048;-75
2021/06/07 07:54:15;;;;;;;3.42;3.22;;;24.20;99.90;;;;;;5043366;28;20108;-77
2021/06/07 07:56:41;;;;;;;4.07;3.78;;;24.10;99.90;;;;;;5037832;28;20032;-75
2021/06/07 07:59:08;;;;;;;4.78;4.38;;;24.20;99.90;;;;;;5040392;28;20037;-74
2021/06/07 08:01:34;;;;;;;4.63;3.38;;;24.30;99.90;;;;;;5039255;28;20029;-74
2021/06/07 08:04:00;;;;;;;4.30;3.95;;;24.50;99.90;;;;;;5034673;28;20113;-74
2021/06/07 08:06:27;;;;;;;4.90;4.55;;;24.60;99.90;;;;;;5035029;28;20729;-74
2021/06/07 08:08:53;;;;;;;3.80;3.58;;;24.80;99.90;;;;;;5037662;28;20430;-76
2021/06/07 08:11:20;;;;;;;4.32;4.03;;;24.70;99.90;;;;;;5039229;28;20429;-75
2021/06/07 08:13:46;;;;;;;5.63;5.13;;;24.70;99.90;;;;;;5026340;28;20039;-75
2021/06/07 08:16:11;;;;;;;5.78;5.30;;;24.50;99.90;;;;;;5046943;28;20021;-74
2021/06/07 08:18:37;;;;;;;5.15;4.75;;;24.50;99.90;;;;;;5033738;28;20037;-75
2021/06/07 08:21:03;;;;;;;5.72;5.30;;;24.40;99.90;;;;;;5016034;28;20475;-76
2021/06/07 08:23:29;;;;;;;7.20;5.20;;;24.50;99.90;;;;;;5032674;28;20057;-74
2021/06/07 08:25:55;;;;;;;7.90;5.50;;;24.60;99.90;;;;;;5033106;28;20541;-74
2021/06/07 08:28:20;;;;;;;6.43;5.97;;;24.80;99.90;;;;;;5032765;28;20077;-74
2021/06/07 08:30:46;;;;;;;5.97;5.45;;;24.80;99.90;;;;;;5033164;28;20022;-75
2021/06/07 08:33:12;;;;;;;8.18;5.70;;;24.80;99.90;;;;;;5032105;28;20101;-75
2021/06/07 08:35:38;;;;;;;6.22;5.82;;;24.80;99.90;;;;;;5032294;28;20087;-75
2021/06/07 08:38:05;;;;;;;5.45;5.05;;;24.90;99.90;;;;;;5032057;28;20037;-75
2021/06/07 08:40:31;;;;;;;6.18;5.70;;;24.90;99.90;;;;;;5032870;28;20487;-75
2021/06/07 08:42:59;;;;;;;6.13;5.63;;;25.00;99.90;;;;;;5032711;28;20025;-75
2021/06/07 08:45:25;;;;;;;11.45;6.65;;;25.00;99.90;;;;;;5032679;28;20418;-75
2021/06/07 08:47:53;;;;;;;9.00;6.40;;;24.90;99.90;;;;;;5032554;28;20056;-74
2021/06/07 08:50:25;;;;;;;5.93;5.38;;;25.00;99.90;;;;;;5032724;28;20144;-75
2021/06/07 08:52:51;;;;;;;6.72;6.22;;;25.10;99.90;;;;;;5032967;28;20051;-75
2021/06/07 08:55:20;;;;;;;5.93;5.45;;;25.10;99.90;;;;;;5032657;28;20079;-75
2021/06/07 08:57:51;;;;;;;7.40;6.80;;;24.90;99.90;;;;;;5032442;28;20040;-75
2021/06/07 09:00:27;;;;;;;7.05;6.65;;;25.10;99.90;;;;;;5015104;28;20022;-75
2021/06/07 09:03:12;;;;;;;7.05;6.45;;;25.40;99.90;;;;;;5032539;28;20025;-75
2021/06/07 09:05:41;;;;;;;7.47;6.88;;;25.70;99.90;;;;;;5033063;28;20013;-75
2021/06/07 09:08:09;;;;;;;7.13;6.68;;;25.90;99.90;;;;;;5032408;28;20097;-76
2021/06/07 09:10:39;;;;;;;6.50;6.00;;;26.00;99.90;;;;;;5015156;28;20022;-76
2021/06/07 09:13:07;;;;;;;7.30;6.65;;;26.10;99.90;;;;;;5031888;28;20036;-75
2021/06/07 09:15:41;;;;;;;7.85;7.10;;;26.10;99.90;;;;;;5032837;28;20048;-75
2021/06/07 09:18:27;;;;;;;6.53;6.00;;;26.30;99.90;;;;;;5031940;28;20017;-75
2021/06/07 09:21:04;;;;;;;6.07;5.57;;;26.60;99.90;;;;;;5014126;28;20025;-75
2021/06/07 09:23:48;;;;;;;7.85;7.20;;;26.40;99.90;;;;;;5031639;28;20036;-75
2021/06/07 09:26:36;;;;;;;6.13;5.65;;;26.30;99.90;;;;;;5014378;28;20040;-75
2021/06/07 09:29:24;;;;;;;6.13;5.72;;;26.10;99.90;;;;;;5031671;28;20033;-75
2021/06/07 09:31:53;;;;;;;6.55;6.00;;;25.80;99.90;;;;;;5023738;28;20396;-76
2021/06/07 09:34:31;;;;;;;6.05;5.65;;;25.70;99.90;;;;;;4998512;28;20057;-74
2021/06/07 09:37:11;;;;;;;7.15;6.50;;;26.00;99.90;;;;;;5011920;28;20028;-75
2021/06/07 09:39:39;;;;;;;8.73;5.72;;;26.40;99.90;;;;;;5010962;28;20114;-75
2021/06/07 09:42:09;;;;;;;6.15;5.65;;;26.60;99.90;;;;;;5015617;28;20344;-76
2021/06/07 09:44:52;;;;;;;6.72;6.22;;;26.80;99.90;;;;;;5021284;28;20384;-76
2021/06/07 09:47:31;;;;;;;8.52;5.03;;;26.60;99.90;;;;;;5031420;28;20096;-75
2021/06/07 09:50:04;;;;;;;4.97;4.57;;;26.70;99.90;;;;;;5032016;28;20025;-75
2021/06/07 09:52:32;;;;;;;6.60;5.47;;;26.70;99.90;;;;;;5032534;28;20021;-75
2021/06/07 09:55:17;;;;;;;5.10;4.60;;;26.70;99.90;;;;;;5031487;28;20095;-75
2021/06/07 09:57:47;;;;;;;5.07;4.68;;;26.90;99.90;;;;;;5031067;28;20033;-75
2021/06/07 10:00:47;;;;;;;4.40;4.05;;;27.00;99.90;;;;;;5013737;28;20032;-74
2021/06/07 10:03:14;;;;;;;10.38;4.53;;;27.30;99.90;;;;;;5031383;28;20030;-75
2021/06/07 10:05:40;;;;;;;4.90;4.35;;;27.60;99.90;;;;;;5031577;28;20033;-75
2021/06/07 10:08:05;;;;;;;14.32;5.03;;;27.30;99.90;;;;;;5039902;28;20026;-75
2021/06/07 10:10:31;;;;;;;3.80;3.60;;;26.60;99.90;;;;;;5043072;28;20033;-75
2021/06/07 10:13:08;;;;;;;3.88;3.58;;;26.20;99.90;;;;;;5044393;28;20034;-75
2021/06/07 10:15:37;;;;;;;4.43;3.70;;;26.00;99.90;;;;;;5042678;28;20029;-76
2021/06/07 10:18:05;;;;;;;4.38;3.17;;;25.90;99.90;;;;;;5019963;28;20087;-76
2021/06/07 10:22:58;;;;;;;3.65;3.05;;;25.70;99.90;;;;;;5030607;28;20021;-75
2021/06/07 10:25:24;;;;;;;2.85;2.65;;;25.70;99.90;;;;;;5031173;28;20032;-73
2021/06/07 10:27:50;;;;;;;3.63;3.38;;;25.80;99.90;;;;;;5014592;28;20025;-74
2021/06/07 10:30:22;;;;;;;2.90;2.70;;;25.70;99.90;;;;;;5034508;28;20025;-74
2021/06/07 10:32:49;;;;;;;3.38;3.15;;;25.10;99.90;;;;;;5036343;28;20020;-73
2021/06/07 10:35:37;;;;;;;3.22;3.03;;;25.00;99.90;;;;;;5037443;28;20036;-74
2021/06/07 10:38:10;;;;;;;2.83;2.63;;;25.50;99.90;;;;;;5037270;28;20021;-74
2021/06/07 10:40:47;;;;;;;2.13;2.03;;;25.70;99.90;;;;;;5035509;28;20162;-74
2021/06/07 10:43:14;;;;;;;4.22;2.47;;;25.60;99.90;;;;;;5038060;28;20036;-73
2021/06/07 10:45:41;;;;;;;3.63;2.00;;;25.50;99.90;;;;;;5038270;28;20105;-74
2021/06/07 10:48:10;;;;;;;1.90;1.80;;;25.30;99.90;;;;;;5034832;28;20033;-75
2021/06/07 10:50:47;;;;;;;2.58;1.75;;;25.30;99.90;;;;;;5034967;28;20014;-75
2021/06/07 10:53:25;;;;;;;2.55;2.35;;;25.10;99.90;;;;;;5034624;28;20022;-77
2021/06/07 10:56:04;;;;;;;2.42;2.28;;;24.90;99.90;;;;;;5034116;28;20029;-74
2021/06/07 10:58:30;;;;;;;8.88;2.88;;;24.60;99.90;;;;;;5034023;28;20030;-75
2021/06/07 11:00:58;;;;;;;2.50;2.30;;;24.60;99.90;;;;;;5034039;28;20079;-76
2021/06/07 11:03:36;;;;;;;8.30;3.67;;;24.60;99.90;;;;;;5033868;28;20061;-73
2021/06/07 11:06:06;;;;;;;8.05;4.65;;;24.60;99.90;;;;;;5033936;28;20053;-73
2021/06/07 11:08:34;;;;;;;10.80;5.28;;;24.50;99.90;;;;;;5034084;28;20026;-74
2021/06/07 11:11:13;;;;;;;5.38;4.57;;;24.60;99.90;;;;;;5033948;28;20184;-73
2021/06/07 11:13:45;;;;;;;4.50;2.75;;;24.60;99.90;;;;;;5034124;28;20096;-74
2021/06/07 11:16:24;;;;;;;;;;;24.70;99.90;;;;;;5016228;28;20124;-69
2021/06/07 11:19:03;;;;;;;32.22;5.53;;;24.60;99.90;;;;;;5034083;28;19905;-71
2021/06/07 11:21:31;;;;;;;7.50;6.47;;;24.60;99.90;;;;;;5033872;28;20491;-73
2021/06/07 11:23:57;;;;;;;7.25;4.40;;;24.30;99.90;;;;;;5033936;28;20059;-74
2021/06/07 11:26:41;;;;;;;14.98;5.80;;;24.20;99.90;;;;;;5027625;28;20025;-74
2021/06/07 11:29:14;;;;;;;8.23;4.75;;;24.10;99.90;;;;;;5027113;28;20037;-75
2021/06/07 11:32:05;;;;;;;38.90;7.03;;;24.10;99.90;;;;;;5034056;28;20534;-74
2021/06/07 11:34:40;;;;;;;;;;;24.20;99.90;;;;;;5032036;28;20128;-75
2021/06/07 11:37:07;;;;;;;11.10;5.85;;;24.30;99.90;;;;;;5033842;28;20291;-75
2021/06/07 11:39:42;;;;;;;5.82;5.22;;;24.30;99.90;;;;;;5033514;28;20091;-75
2021/06/07 11:42:14;;;;;;;4.80;4.40;;;24.50;99.90;;;;;;5033732;28;20026;-76
2021/06/07 11:44:43;;;;;;;7.57;4.50;;;24.60;99.90;;;;;;5034173;28;20021;-74
2021/06/07 11:47:14;;;;;;;5.60;5.18;;;24.60;99.90;;;;;;5032735;28;20357;-72
2021/06/07 11:50:03;;;;;;;9.30;5.25;;;24.60;99.90;;;;;;5032467;28;20030;-73
2021/06/07 11:52:32;;;;;;;6.95;5.05;;;24.60;99.90;;;;;;5020373;28;20488;-74
2021/06/07 11:55:23;;;;;;;6.75;4.82;;;24.50;99.90;;;;;;5033025;28;20034;-73
2021/06/07 11:57:51;;;;;;;7.57;4.85;;;24.30;99.90;;;;;;5012954;28;20053;-73
2021/06/07 12:00:24;;;;;;;4.82;3.92;;;24.10;99.90;;;;;;5024579;28;20033;-73
2021/06/07 12:02:50;;;;;;;7.30;4.68;;;24.00;99.90;;;;;;5020859;28;20028;-74
2021/06/07 12:05:17;;;;;;;4.65;4.18;;;23.70;99.90;;;;;;5020785;28;20423;-74
2021/06/07 12:07:46;;;;;;;5.70;4.93;;;23.30;99.90;;;;;;5031526;28;20017;-71
2021/06/07 12:10:18;;;;;;;6.20;5.13;;;23.20;99.90;;;;;;5031175;28;20030;-70
2021/06/07 12:12:46;;;;;;;7.80;5.50;;;23.20;99.90;;;;;;5031628;28;20029;-72
2021/06/07 12:15:15;;;;;;;6.07;5.47;;;23.10;99.90;;;;;;5031235;28;20025;-72
2021/06/07 12:17:53;;;;;;;6.32;5.30;;;22.90;99.90;;;;;;5030622;28;20031;-73
2021/06/07 12:20:21;;;;;;;5.85;5.32;;;23.00;99.90;;;;;;5028970;28;20033;-71
2021/06/07 12:22:50;;;;;;;13.43;5.95;;;22.80;99.90;;;;;;5030946;28;20471;-72
2021/06/07 12:30:55;;;;;;;7.03;3.97;;;23.10;99.90;;;;;;5017339;28;20399;-72
2021/06/07 12:33:30;;;;;;;5.65;3.50;;;23.20;99.90;;;;;;5031066;28;20029;-72
2021/06/07 12:35:57;;;;;;;7.75;4.05;;;23.20;99.90;;;;;;5030901;28;20108;-72
2021/06/07 12:38:25;;;;;;;4.28;3.15;;;23.40;99.90;;;;;;5031651;28;20498;-73
2021/06/07 12:40:59;;;;;;;5.18;3.72;;;23.50;99.90;;;;;;5031636;28;20399;-71
2021/06/07 12:43:30;;;;;;;3.58;3.38;;;23.50;99.90;;;;;;5013253;28;20029;-72
2021/06/07 12:46:06;;;;;;;7.43;3.92;;;23.50;99.90;;;;;;5030976;28;20025;-72
2021/06/07 12:48:33;;;;;;;5.45;4.63;;;23.60;99.90;;;;;;5028611;28;20514;-73
2021/06/07 12:51:10;;;;;;;4.82;3.65;;;23.80;99.90;;;;;;5030970;28;20083;-72
2021/06/07 12:53:52;;;;;;;6.82;4.30;;;24.00;99.90;;;;;;5026227;28;20030;-73
2021/06/07 12:56:27;;;;;;;5.40;4.07;;;24.00;99.90;;;;;;5033824;28;20349;-74
2021/06/07 12:58:56;;;;;;;6.20;5.68;;;24.10;99.90;;;;;;5025614;28;20503;-71
2021/06/07 13:01:36;;;;;;;9.40;5.03;;;24.40;99.90;;;;;;5028374;28;20048;-72
2021/06/07 13:04:03;;;;;;;5.18;4.65;;;24.50;99.90;;;;;;5013403;28;20029;-74
2021/06/07 13:06:30;;;;;;;6.68;4.35;;;24.50;99.90;;;;;;5031332;28;20028;-73